createdAt,value
2018-10-16T00:01:31.436Z,15.90
2018-10-16T00:04:01.059Z,15.90
2018-10-16T00:06:31.753Z,15.90
2018-10-16T00:09:03.422Z,15.80
2018-10-16T00:11:33.402Z,15.80
2018-10-16T00:14:11.395Z,15.80
2018-10-16T00:16:41.158Z,15.70
2018-10-16T00:19:10.551Z,15.80
2018-10-16T00:21:40.382Z,15.80
2018-10-16T00:24:13.503Z,15.80
2018-10-16T00:26:42.793Z,15.80
2018-10-16T00:29:14.876Z,15.80
2018-10-16T00:31:44.429Z,15.80
2018-10-16T00:34:16.987Z,15.80
2018-10-16T00:36:48.993Z,15.80
2018-10-16T00:39:19.648Z,15.80
2018-10-16T00:41:54.111Z,15.80
2018-10-16T00:44:23.334Z,15.80
2018-10-16T00:46:52.563Z,15.80
2018-10-16T00:49:25.279Z,15.80
2018-10-16T00:51:54.573Z,15.70
2018-10-16T00:54:27.304Z,15.70
2018-10-16T00:56:56.923Z,15.70
2018-10-16T00:59:29.412Z,15.70
2018-10-16T01:01:58.666Z,15.70
2018-10-16T01:04:31.742Z,15.70
2018-10-16T01:07:01.693Z,15.60
2018-10-16T01:09:34.459Z,15.60
2018-10-16T01:12:04.055Z,15.60
2018-10-16T01:14:36.904Z,15.60
2018-10-16T01:17:06.698Z,15.60
2018-10-16T01:19:39.422Z,15.60
2018-10-16T01:22:08.944Z,15.60
2018-10-16T01:24:46.921Z,15.60
2018-10-16T01:27:17.606Z,15.60
2018-10-16T01:29:47.065Z,15.60
2018-10-16T01:32:16.572Z,15.60
2018-10-16T01:34:49.318Z,15.50
2018-10-16T01:37:18.549Z,15.60
2018-10-16T01:39:52.273Z,15.50
2018-10-16T01:42:21.455Z,15.50
2018-10-16T01:44:54.550Z,15.50
2018-10-16T01:47:24.087Z,15.50
2018-10-16T01:49:56.804Z,15.40
2018-10-16T01:52:26.132Z,15.50
2018-10-16T01:54:59.402Z,15.50
2018-10-16T01:57:28.907Z,15.50
2018-10-16T02:00:06.439Z,15.50
2018-10-16T02:02:36.000Z,15.40
2018-10-16T02:05:06.103Z,15.40
2018-10-16T02:07:35.675Z,15.40
2018-10-16T02:10:09.138Z,15.40
2018-10-16T02:12:38.372Z,15.40
2018-10-16T02:15:12.114Z,15.40
2018-10-16T02:17:41.583Z,15.40
2018-10-16T02:20:18.816Z,15.30
2018-10-16T02:22:48.923Z,15.30
2018-10-16T02:25:18.133Z,15.30
2018-10-16T02:27:47.682Z,15.30
2018-10-16T02:30:20.498Z,15.30
2018-10-16T02:32:50.379Z,15.30
2018-10-16T02:35:23.101Z,15.30
2018-10-16T02:37:53.793Z,15.30
2018-10-16T02:40:24.762Z,15.30
2018-10-16T02:42:56.083Z,15.20
2018-10-16T02:45:27.262Z,15.20
2018-10-16T02:47:56.945Z,15.20
2018-10-16T02:50:30.243Z,15.20
2018-10-16T02:52:59.927Z,15.20
2018-10-16T02:55:32.550Z,15.10
2018-10-16T02:58:02.236Z,15.20
2018-10-16T03:00:34.444Z,15.10
2018-10-16T03:03:03.651Z,15.10
2018-10-16T03:05:36.674Z,15.10
2018-10-16T03:08:05.999Z,15.10
2018-10-16T03:10:39.334Z,15.10
2018-10-16T03:13:08.952Z,15.10
2018-10-16T03:15:45.267Z,15.00
2018-10-16T03:18:14.443Z,15.00
2018-10-16T03:20:45.328Z,15.00
2018-10-16T03:23:14.577Z,15.00
2018-10-16T03:25:50.779Z,15.00
2018-10-16T03:28:20.308Z,15.00
2018-10-16T03:30:50.453Z,15.00
2018-10-16T03:35:41.798Z,15.00
2018-10-16T03:38:11.149Z,15.00
2018-10-16T03:40:40.346Z,15.00
2018-10-16T03:43:11.973Z,15.00
2018-10-16T03:45:41.164Z,14.90
2018-10-16T03:48:11.302Z,14.90
2018-10-16T03:50:41.809Z,14.90
2018-10-16T03:53:11.130Z,14.90
2018-10-16T03:55:40.375Z,14.90
2018-10-16T03:58:10.487Z,14.90
2018-10-16T04:00:39.726Z,14.90
2018-10-16T04:03:09.299Z,14.90
2018-10-16T04:05:39.180Z,14.90
2018-10-16T04:08:15.834Z,14.90
2018-10-16T04:10:45.046Z,14.90
2018-10-16T04:13:15.882Z,14.80
2018-10-16T04:15:45.107Z,14.80
2018-10-16T04:18:18.322Z,14.80
2018-10-16T04:20:47.804Z,14.80
2018-10-16T04:23:20.646Z,14.70
2018-10-16T04:25:49.880Z,14.80
2018-10-16T04:28:23.124Z,14.80
2018-10-16T04:30:52.601Z,14.70
2018-10-16T04:33:25.362Z,14.70
2018-10-16T04:35:54.595Z,14.70
2018-10-16T04:38:27.974Z,14.70
2018-10-16T04:40:57.179Z,14.70
2018-10-16T04:43:29.929Z,14.70
2018-10-16T04:45:59.800Z,14.70
2018-10-16T04:48:36.050Z,14.70
2018-10-16T04:51:05.688Z,14.70
2018-10-16T04:53:35.155Z,14.70
2018-10-16T04:56:04.668Z,14.60
2018-10-16T04:58:41.242Z,14.60
2018-10-16T05:01:10.681Z,14.60
2018-10-16T05:03:40.484Z,14.60
2018-10-16T05:06:10.005Z,14.60
2018-10-16T05:08:46.809Z,14.60
2018-10-16T05:11:16.758Z,14.60
2018-10-16T05:13:46.987Z,14.60
2018-10-16T05:16:16.220Z,14.60
2018-10-16T05:21:23.911Z,14.60
2018-10-16T05:23:53.488Z,14.60
2018-10-16T05:26:22.710Z,14.60
2018-10-16T05:28:55.042Z,14.50
2018-10-16T05:31:24.683Z,14.50
2018-10-16T05:33:57.930Z,14.50
2018-10-16T05:36:27.330Z,14.50
2018-10-16T05:39:00.060Z,14.50
2018-10-16T05:41:29.768Z,14.50
2018-10-16T05:44:03.930Z,14.50
2018-10-16T05:46:33.275Z,14.50
2018-10-16T05:49:06.222Z,14.50
2018-10-16T05:51:35.740Z,14.50
2018-10-16T05:54:12.310Z,14.50
2018-10-16T05:56:41.814Z,14.50
2018-10-16T05:59:14.698Z,14.50
2018-10-16T06:01:44.074Z,14.50
2018-10-16T06:04:16.920Z,14.40
2018-10-16T06:06:46.173Z,14.40
2018-10-16T06:09:22.792Z,14.40
2018-10-16T06:11:52.053Z,14.40
2018-10-16T06:14:21.413Z,14.40
2018-10-16T06:16:51.027Z,14.40
2018-10-16T06:19:24.310Z,14.40
2018-10-16T06:21:53.603Z,14.40
2018-10-16T06:24:26.716Z,14.40
2018-10-16T06:26:56.266Z,14.40
2018-10-16T06:29:29.806Z,14.40
2018-10-16T06:31:59.960Z,14.50
2018-10-16T06:34:30.662Z,14.50
2018-10-16T06:36:59.912Z,14.50
2018-10-16T06:39:32.787Z,14.60
2018-10-16T06:42:02.058Z,14.60
2018-10-16T06:44:35.436Z,14.60
2018-10-16T06:47:05.455Z,14.60
2018-10-16T06:49:38.672Z,14.60
2018-10-16T06:52:08.043Z,14.60
2018-10-16T06:54:41.094Z,14.60
2018-10-16T06:57:10.432Z,14.70
2018-10-16T06:59:43.446Z,14.70
2018-10-16T07:02:13.237Z,14.70
2018-10-16T07:04:49.805Z,14.70
2018-10-16T07:07:19.560Z,14.80
2018-10-16T07:09:49.225Z,14.80
2018-10-16T07:12:18.759Z,14.90
2018-10-16T07:14:52.268Z,15.00
2018-10-16T07:17:21.589Z,15.10
2018-10-16T07:19:58.229Z,15.20
2018-10-16T07:22:27.805Z,15.30
2018-10-16T07:24:57.435Z,15.30
2018-10-16T07:27:26.650Z,15.40
2018-10-16T07:30:00.923Z,15.40
2018-10-16T07:32:30.366Z,15.40
2018-10-16T07:35:08.750Z,15.50
2018-10-16T07:37:39.400Z,15.40
2018-10-16T07:40:10.182Z,15.50
2018-10-16T07:42:40.021Z,15.60
2018-10-16T07:45:10.969Z,15.60
2018-10-16T07:47:40.806Z,15.60
2018-10-16T07:50:17.891Z,15.70
2018-10-16T07:52:47.342Z,15.80
2018-10-16T07:55:17.503Z,15.90
2018-10-16T07:57:46.917Z,16.00
2018-10-16T08:00:20.046Z,16.10
2018-10-16T08:02:50.838Z,16.20
2018-10-16T08:05:21.545Z,16.40
2018-10-16T08:07:50.797Z,16.50
2018-10-16T08:10:23.707Z,16.60
2018-10-16T08:12:55.393Z,16.60
2018-10-16T08:15:26.334Z,16.80
2018-10-16T08:17:56.059Z,16.80
2018-10-16T08:20:32.630Z,16.90
2018-10-16T08:23:01.919Z,17.00
2018-10-16T08:25:32.641Z,17.10
2018-10-16T08:28:02.512Z,17.10
2018-10-16T08:30:33.992Z,17.20
2018-10-16T08:33:04.916Z,17.30
2018-10-16T08:35:35.938Z,17.40
2018-10-16T08:40:17.187Z,17.40
2018-10-16T08:42:57.482Z,17.50
2018-10-16T08:45:38.782Z,17.60
2018-10-16T08:48:18.884Z,17.80
2018-10-16T08:51:00.385Z,17.90
2018-10-16T08:53:30.667Z,18.10
2018-10-16T08:56:00.340Z,18.40
2018-10-16T08:58:29.631Z,18.60
2018-10-16T09:00:59.028Z,19.00
2018-10-16T09:03:28.815Z,19.40
2018-10-16T09:05:58.249Z,19.80
2018-10-16T09:08:27.575Z,20.30
2018-10-16T09:10:57.522Z,20.80
2018-10-16T09:13:27.864Z,21.30
2018-10-16T09:16:01.193Z,21.70
2018-10-16T09:21:09.937Z,21.80
2018-10-16T09:23:39.351Z,22.00
2018-10-16T09:26:09.143Z,22.20
2018-10-16T09:28:39.222Z,22.50
2018-10-16T09:31:09.103Z,22.90
2018-10-16T09:33:38.723Z,23.20
2018-10-16T09:36:15.991Z,23.60
2018-10-16T09:38:45.958Z,23.90
2018-10-16T09:41:15.731Z,24.20
2018-10-16T09:43:45.239Z,24.60
2018-10-16T09:46:17.948Z,24.60
2018-10-16T09:48:47.505Z,24.80
2018-10-16T09:51:20.510Z,25.10
2018-10-16T09:53:53.407Z,25.30
2018-10-16T09:56:23.235Z,25.30
2018-10-16T09:58:52.892Z,25.10
2018-10-16T10:01:31.332Z,25.00
2018-10-16T10:04:00.768Z,25.00
2018-10-16T10:06:30.589Z,25.10
2018-10-16T10:09:13.270Z,25.10
2018-10-16T10:11:42.849Z,25.30
2018-10-16T10:14:13.454Z,25.70
2018-10-16T10:16:43.114Z,25.90
2018-10-16T10:19:12.425Z,26.20
2018-10-16T10:21:42.208Z,26.40
2018-10-16T10:24:12.154Z,26.50
2018-10-16T10:26:41.928Z,26.50
2018-10-16T10:29:11.606Z,26.30
2018-10-16T10:31:40.951Z,26.20
2018-10-16T10:34:10.311Z,26.20
2018-10-16T10:36:43.019Z,26.30
2018-10-16T10:39:13.218Z,26.50
2018-10-16T10:41:49.852Z,26.70
2018-10-16T10:44:20.260Z,27.00
2018-10-16T10:46:49.562Z,27.10
2018-10-16T10:49:19.441Z,27.20
2018-10-16T10:51:51.229Z,27.00
2018-10-16T10:54:23.041Z,26.80
2018-10-16T10:56:54.792Z,26.60
2018-10-16T10:59:25.543Z,26.50
2018-10-16T11:01:58.903Z,26.40
2018-10-16T11:04:28.358Z,26.30
2018-10-16T11:07:00.564Z,26.30
2018-10-16T11:09:31.147Z,26.20
2018-10-16T11:12:03.624Z,26.10
2018-10-16T11:14:33.220Z,26.20
2018-10-16T11:17:07.685Z,26.30
2018-10-16T11:19:39.021Z,26.30
2018-10-16T11:22:08.405Z,26.50
2018-10-16T11:24:37.779Z,26.50
2018-10-16T11:27:16.396Z,26.60
2018-10-16T11:29:45.717Z,26.60
2018-10-16T11:32:15.357Z,26.60
2018-10-16T11:34:44.600Z,26.70
2018-10-16T11:37:16.774Z,26.50
2018-10-16T11:39:46.099Z,26.40
2018-10-16T11:42:18.940Z,26.40
2018-10-16T11:44:49.154Z,26.20
2018-10-16T11:47:22.694Z,26.10
2018-10-16T11:49:52.100Z,26.00
2018-10-16T11:52:23.803Z,26.00
2018-10-16T11:54:53.177Z,26.00
2018-10-16T11:57:25.940Z,26.00
2018-10-16T11:59:56.317Z,25.90
2018-10-16T12:02:28.235Z,25.70
2018-10-16T12:04:58.752Z,25.70
2018-10-16T12:07:31.696Z,25.50
2018-10-16T12:10:03.328Z,25.50
2018-10-16T12:12:33.827Z,25.50
2018-10-16T12:15:03.446Z,25.50
2018-10-16T12:17:41.533Z,25.50
2018-10-16T12:20:20.974Z,25.50
2018-10-16T12:22:50.463Z,25.50
2018-10-16T12:25:20.131Z,25.50
2018-10-16T12:27:49.410Z,25.50
2018-10-16T12:30:18.734Z,25.60
2018-10-16T12:32:49.114Z,25.50
2018-10-16T12:35:18.444Z,25.50
2018-10-16T12:37:48.169Z,25.50
2018-10-16T12:40:17.873Z,25.40
2018-10-16T12:42:50.164Z,25.30
2018-10-16T12:45:19.469Z,25.30
2018-10-16T12:47:52.812Z,25.30
2018-10-16T12:50:22.253Z,25.30
2018-10-16T12:52:59.355Z,25.40
2018-10-16T12:55:28.979Z,25.30
2018-10-16T12:57:58.585Z,25.40
2018-10-16T13:00:27.867Z,25.30
2018-10-16T13:03:02.187Z,25.30
2018-10-16T13:05:31.414Z,25.20
2018-10-16T13:08:10.558Z,25.10
2018-10-16T13:10:40.061Z,25.20
2018-10-16T13:13:09.635Z,25.20
2018-10-16T13:15:39.070Z,25.40
2018-10-16T13:18:12.065Z,25.50
2018-10-16T13:20:41.557Z,25.50
2018-10-16T13:25:42.669Z,25.40
2018-10-16T13:28:16.751Z,25.40
2018-10-16T13:30:46.046Z,25.40
2018-10-16T13:35:46.347Z,25.40
2018-10-16T13:38:20.661Z,25.20
2018-10-16T13:43:25.051Z,25.20
2018-10-16T13:45:54.809Z,25.20
2018-10-16T13:48:26.429Z,25.30
2018-10-16T13:50:56.413Z,25.50
2018-10-16T13:53:29.516Z,25.70
2018-10-16T13:55:58.804Z,25.90
2018-10-16T13:58:31.160Z,26.10
2018-10-16T14:01:00.774Z,26.20
2018-10-16T14:03:37.895Z,26.20
2018-10-16T14:06:07.457Z,26.20
2018-10-16T14:08:36.865Z,26.10
2018-10-16T14:11:06.233Z,26.20
2018-10-16T14:13:39.004Z,26.10
2018-10-16T14:16:09.262Z,26.10
2018-10-16T14:18:42.150Z,26.00
2018-10-16T14:21:12.251Z,25.80
2018-10-16T14:23:44.790Z,25.70
2018-10-16T14:26:14.151Z,25.70
2018-10-16T14:28:46.653Z,25.70
2018-10-16T14:31:16.155Z,25.70
2018-10-16T14:33:49.593Z,25.60
2018-10-16T14:36:20.200Z,25.50
2018-10-16T14:38:53.490Z,25.60
2018-10-16T14:41:23.191Z,25.50
2018-10-16T14:43:56.104Z,25.50
2018-10-16T14:46:25.484Z,25.50
2018-10-16T14:48:58.621Z,25.30
2018-10-16T14:51:28.297Z,25.20
2018-10-16T14:54:05.277Z,25.20
2018-10-16T14:56:35.440Z,25.30
2018-10-16T14:59:04.921Z,25.30
2018-10-16T15:01:34.265Z,25.20
2018-10-16T15:04:06.797Z,25.20
2018-10-16T15:06:37.277Z,25.20
2018-10-16T15:09:14.225Z,25.10
2018-10-16T15:11:44.272Z,25.00
2018-10-16T15:14:14.733Z,25.00
2018-10-16T15:16:44.392Z,24.90
2018-10-16T15:19:17.741Z,24.90
2018-10-16T15:21:47.108Z,24.80
2018-10-16T15:24:19.010Z,24.80
2018-10-16T15:26:48.387Z,24.70
2018-10-16T15:29:25.630Z,24.70
2018-10-16T15:31:56.684Z,24.50
2018-10-16T15:34:27.026Z,24.40
2018-10-16T15:36:56.450Z,24.30
2018-10-16T15:39:26.181Z,24.20
2018-10-16T15:41:55.883Z,24.10
2018-10-16T15:44:28.510Z,24.00
2018-10-16T15:46:58.475Z,24.00
2018-10-16T15:49:33.918Z,23.80
2018-10-16T15:52:03.591Z,23.70
2018-10-16T15:54:35.026Z,23.70
2018-10-16T15:57:04.491Z,23.60
2018-10-16T15:59:36.350Z,23.60
2018-10-16T16:02:06.312Z,23.50
2018-10-16T16:04:38.772Z,23.40
2018-10-16T16:07:08.181Z,23.30
2018-10-16T16:09:41.364Z,23.30
2018-10-16T16:12:10.891Z,23.20
2018-10-16T16:14:43.882Z,23.10
2018-10-16T16:17:13.238Z,23.00
2018-10-16T16:19:46.444Z,23.00
2018-10-16T16:22:16.688Z,22.90
2018-10-16T16:24:50.259Z,22.80
2018-10-16T16:27:19.607Z,22.70
2018-10-16T16:29:56.464Z,22.70
2018-10-16T16:32:26.731Z,22.60
2018-10-16T16:34:56.741Z,22.50
2018-10-16T16:37:27.074Z,22.50
2018-10-16T16:39:59.795Z,22.50
2018-10-16T16:42:30.602Z,22.40
2018-10-16T16:45:01.738Z,22.40
2018-10-16T16:47:31.353Z,22.30
2018-10-16T16:50:04.937Z,22.20
2018-10-16T16:52:34.569Z,22.20
2018-10-16T16:55:08.839Z,22.00
2018-10-16T16:57:38.162Z,22.00
2018-10-16T17:00:11.358Z,21.90
2018-10-16T17:02:41.370Z,21.80
2018-10-16T17:05:14.525Z,21.70
2018-10-16T17:07:44.416Z,21.60
2018-10-16T17:10:17.529Z,21.60
2018-10-16T17:12:46.980Z,21.50
2018-10-16T17:15:20.113Z,21.40
2018-10-16T17:17:49.814Z,21.30
2018-10-16T17:20:23.346Z,21.20
2018-10-16T17:22:52.666Z,21.10
2018-10-16T17:25:25.398Z,21.10
2018-10-16T17:27:54.806Z,21.00
2018-10-16T17:30:26.123Z,20.90
2018-10-16T17:32:55.531Z,20.90
2018-10-16T17:35:28.954Z,20.80
2018-10-16T17:37:58.440Z,20.70
2018-10-16T17:40:31.511Z,20.70
2018-10-16T17:43:01.183Z,20.60
2018-10-16T17:45:33.575Z,20.50
2018-10-16T17:48:03.256Z,20.50
2018-10-16T17:50:36.368Z,20.40
2018-10-16T17:53:05.791Z,20.40
2018-10-16T17:55:38.649Z,20.40
2018-10-16T17:58:08.834Z,20.30
2018-10-16T18:00:42.860Z,20.30
2018-10-16T18:03:13.493Z,20.30
2018-10-16T18:05:43.720Z,20.30
2018-10-16T18:08:13.134Z,20.30
2018-10-16T18:10:47.141Z,20.30
2018-10-16T18:13:16.780Z,20.30
2018-10-16T18:16:52.056Z,20.20
2018-10-16T18:19:21.398Z,20.20
2018-10-16T18:21:53.740Z,20.10
2018-10-16T18:24:23.961Z,20.10
2018-10-16T18:26:58.039Z,20.00
2018-10-16T18:29:28.112Z,20.00
2018-10-16T18:31:59.390Z,20.00
2018-10-16T18:34:29.175Z,20.00
2018-10-16T18:37:07.352Z,19.90
2018-10-16T18:39:37.174Z,19.90
2018-10-16T18:42:07.608Z,19.80
2018-10-16T18:44:37.306Z,19.80
2018-10-16T18:47:07.237Z,19.80
2018-10-16T18:49:37.068Z,19.70
2018-10-16T18:52:11.418Z,19.60
2018-10-16T18:54:40.739Z,19.60
2018-10-16T18:57:17.394Z,19.50
2018-10-16T18:59:47.188Z,19.50
2018-10-16T19:02:16.725Z,19.50
2018-10-16T19:04:46.249Z,19.50
2018-10-16T19:07:18.928Z,19.40
2018-10-16T19:09:49.322Z,19.40
2018-10-16T19:12:22.525Z,19.40
2018-10-16T19:14:52.478Z,19.40
2018-10-16T19:17:23.406Z,19.40
2018-10-16T19:19:52.933Z,19.40
2018-10-16T19:22:25.581Z,19.40
2018-10-16T19:24:55.057Z,19.40
2018-10-16T19:27:31.763Z,19.40
2018-10-16T19:30:01.431Z,19.40
2018-10-16T19:32:30.916Z,19.40
2018-10-16T19:35:00.386Z,19.30
2018-10-16T19:37:32.429Z,19.30
2018-10-16T19:40:01.899Z,19.20
2018-10-16T19:42:35.143Z,19.10
2018-10-16T19:45:05.648Z,19.10
2018-10-16T19:47:38.293Z,19.00
2018-10-16T19:50:08.583Z,19.00
2018-10-16T19:52:41.420Z,19.00
2018-10-16T19:55:11.737Z,19.00
2018-10-16T19:57:42.635Z,19.00
2018-10-16T20:00:12.844Z,19.00
2018-10-16T20:02:45.968Z,19.00
2018-10-16T20:05:15.373Z,19.00
2018-10-16T20:07:48.128Z,19.10
2018-10-16T20:10:18.433Z,19.10
2018-10-16T20:12:55.104Z,19.20
2018-10-16T20:15:24.973Z,19.10
2018-10-16T20:17:54.406Z,19.10
2018-10-16T20:20:23.833Z,19.10
2018-10-16T20:22:56.989Z,19.00
2018-10-16T20:25:26.968Z,19.00
2018-10-16T20:28:00.812Z,18.90
2018-10-16T20:30:33.594Z,18.90
2018-10-16T20:33:03.131Z,18.90
2018-10-16T20:35:32.676Z,18.90
2018-10-16T20:38:06.001Z,18.80
2018-10-16T20:40:35.625Z,18.80
2018-10-16T20:43:08.772Z,18.80
2018-10-16T20:45:38.973Z,18.80
2018-10-16T20:48:12.546Z,18.80
2018-10-16T20:50:42.001Z,18.70
2018-10-16T20:53:15.193Z,18.70
2018-10-16T20:55:44.839Z,18.70
2018-10-16T20:58:17.420Z,18.70
2018-10-16T21:00:47.428Z,18.60
2018-10-16T21:03:20.682Z,18.60
2018-10-16T21:05:50.204Z,18.50
2018-10-16T21:14:45.883Z,18.50
2018-10-16T21:17:15.594Z,18.50
2018-10-16T21:19:44.986Z,18.50
2018-10-16T21:22:15.609Z,18.50
2018-10-16T21:24:44.996Z,18.60
2018-10-16T21:27:14.365Z,18.60
2018-10-16T21:29:44.185Z,18.60
2018-10-16T21:32:13.629Z,18.60
2018-10-16T21:34:42.925Z,18.60
2018-10-16T21:37:12.643Z,18.60
2018-10-16T21:39:42.069Z,18.60
2018-10-16T21:42:11.486Z,18.60
2018-10-16T21:44:41.341Z,18.50
2018-10-16T21:47:10.764Z,18.50
2018-10-16T21:49:41.321Z,18.50
2018-10-16T21:52:13.039Z,18.50
2018-10-16T21:54:45.188Z,18.50
2018-10-16T21:57:14.625Z,18.50
2018-10-16T21:59:47.193Z,18.50
2018-10-16T22:02:21.517Z,18.60
2018-10-16T22:04:50.923Z,18.60
2018-10-16T22:07:20.575Z,18.70
2018-10-16T22:09:53.439Z,18.70
2018-10-16T22:12:22.791Z,18.70
2018-10-16T22:14:56.791Z,18.70
2018-10-16T22:17:26.149Z,18.80
2018-10-16T22:19:58.740Z,18.70
2018-10-16T22:22:28.088Z,18.80
2018-10-16T22:25:01.262Z,18.70
2018-10-16T22:27:30.940Z,18.80
2018-10-16T22:30:08.258Z,18.70
2018-10-16T22:32:37.768Z,18.60
2018-10-16T22:35:09.360Z,18.60
2018-10-16T22:37:38.848Z,18.60
2018-10-16T22:40:11.516Z,18.50
2018-10-16T22:42:40.899Z,18.40
2018-10-16T22:45:13.436Z,18.30
2018-10-16T22:47:42.734Z,18.30
2018-10-16T22:50:19.076Z,18.30
2018-10-16T22:52:48.846Z,18.20
2018-10-16T22:55:18.368Z,18.10
2018-10-16T22:57:47.668Z,18.00
2018-10-16T23:00:20.786Z,18.00
2018-10-16T23:02:50.084Z,17.90
2018-10-16T23:05:26.915Z,17.90
2018-10-16T23:07:56.606Z,17.80
2018-10-16T23:10:25.926Z,17.80
2018-10-16T23:13:00.522Z,17.80
2018-10-16T23:15:30.147Z,17.70
2018-10-16T23:17:59.982Z,17.70
2018-10-16T23:20:31.344Z,17.70
2018-10-16T23:23:01.017Z,17.70
2018-10-16T23:25:33.409Z,17.70
2018-10-16T23:28:02.909Z,17.70
2018-10-16T23:30:35.246Z,17.70
2018-10-16T23:33:04.521Z,17.70
2018-10-16T23:35:39.364Z,17.70
2018-10-16T23:38:08.937Z,17.60
2018-10-16T23:40:41.211Z,17.60
2018-10-16T23:43:10.592Z,17.60
2018-10-16T23:45:43.428Z,17.60
2018-10-16T23:48:13.026Z,17.50
2018-10-16T23:50:45.989Z,17.50
2018-10-16T23:53:15.229Z,17.40
2018-10-16T23:55:52.041Z,17.40
2018-10-16T23:58:21.289Z,17.40
